sensor_id;sensor_type;location;lat;lon;timestamp;pressure;altitude;pressure_sealevel;temperature;humidity
81352;BME280;70809;52.184;13.422;2023-09-12T00:00:04;100863.72;;;16.05;77.48
81352;BME280;70809;52.184;13.422;2023-09-12T00:01:15;100865.53;;;16.06;77.62
81352;BME280;70809;52.184;13.422;2023-09-12T00:02:17;100861.97;;;16.07;77.73
81352;BME280;70809;52.184;13.422;2023-09-12T00:03:20;100860.16;;;16.08;77.66
81352;BME280;70809;52.184;13.422;2023-09-12T00:04:23;100864.59;;;16.09;77.53
81352;BME280;70809;52.184;13.422;2023-09-12T00:05:25;100851.28;;;16.09;77.23
81352;BME280;70809;52.184;13.422;2023-09-12T00:06:27;100860.16;;;16.09;77.07
81352;BME280;70809;52.184;13.422;2023-09-12T00:07:29;100860.16;;;16.08;77.24
81352;BME280;70809;52.184;13.422;2023-09-12T00:08:31;100861.13;;;16.01;76.91
81352;BME280;70809;52.184;13.422;2023-09-12T00:09:32;100866.44;;;15.98;76.57
81352;BME280;70809;52.184;13.422;2023-09-12T00:10:34;100858.47;;;15.93;76.58
81352;BME280;70809;52.184;13.422;2023-09-12T00:11:36;100866.53;;;15.82;77.22
81352;BME280;70809;52.184;13.422;2023-09-12T00:12:37;100861.25;;;15.78;77.50
81352;BME280;70809;52.184;13.422;2023-09-12T00:13:40;100862.16;;;15.71;78.27
81352;BME280;70809;52.184;13.422;2023-09-12T00:14:42;100867.50;;;15.74;78.73
81352;BME280;70809;52.184;13.422;2023-09-12T00:15:43;100866.56;;;15.76;78.40
81352;BME280;70809;52.184;13.422;2023-09-12T00:16:45;100857.66;;;15.82;78.08
81352;BME280;70809;52.184;13.422;2023-09-12T00:17:47;100863.03;;;15.74;79.18
81352;BME280;70809;52.184;13.422;2023-09-12T00:18:48;100869.31;;;15.64;79.47
81352;BME280;70809;52.184;13.422;2023-09-12T00:19:51;100867.50;;;15.71;79.08
81352;BME280;70809;52.184;13.422;2023-09-12T00:20:53;100870.13;;;15.78;78.21
81352;BME280;70809;52.184;13.422;2023-09-12T00:21:55;100871.94;;;15.73;78.55
81352;BME280;70809;52.184;13.422;2023-09-12T00:22:57;100868.41;;;15.68;78.60
81352;BME280;70809;52.184;13.422;2023-09-12T00:23:59;100864.88;;;15.66;78.89
81352;BME280;70809;52.184;13.422;2023-09-12T00:25:01;100871.06;;;15.73;78.22
81352;BME280;70809;52.184;13.422;2023-09-12T00:26:02;100865.72;;;15.73;78.17
81352;BME280;70809;52.184;13.422;2023-09-12T00:27:04;100869.28;;;15.70;78.94
81352;BME280;70809;52.184;13.422;2023-09-12T00:28:06;100869.28;;;15.69;78.89
81352;BME280;70809;52.184;13.422;2023-09-12T00:29:07;100870.19;;;15.66;79.34
81352;BME280;70809;52.184;13.422;2023-09-12T00:30:10;100864.00;;;15.62;79.96
81352;BME280;70809;52.184;13.422;2023-09-12T00:31:12;100870.19;;;15.61;80.07
81352;BME280;70809;52.184;13.422;2023-09-12T00:32:14;100864.00;;;15.55;80.02
81352;BME280;70809;52.184;13.422;2023-09-12T00:33:15;100870.19;;;15.54;79.89
81352;BME280;70809;52.184;13.422;2023-09-12T00:34:17;100860.44;;;15.57;79.83
81352;BME280;70809;52.184;13.422;2023-09-12T00:35:21;100869.31;;;15.65;79.64
81352;BME280;70809;52.184;13.422;2023-09-12T00:36:23;100871.06;;;15.70;79.12
81352;BME280;70809;52.184;13.422;2023-09-12T00:37:24;100863.97;;;15.69;79.23
81352;BME280;70809;52.184;13.422;2023-09-12T00:38:27;100870.19;;;15.61;79.78
81352;BME280;70809;52.184;13.422;2023-09-12T00:39:28;100869.31;;;15.53;79.56
81352;BME280;70809;52.184;13.422;2023-09-12T00:40:30;100866.66;;;15.53;79.42
81352;BME280;70809;52.184;13.422;2023-09-12T00:41:31;100862.19;;;15.58;78.47
81352;BME280;70809;52.184;13.422;2023-09-12T00:42:33;100866.63;;;15.59;78.29
81352;BME280;70809;52.184;13.422;2023-09-12T00:43:35;100869.34;;;15.50;78.55
81352;BME280;70809;52.184;13.422;2023-09-12T00:44:36;100864.94;;;15.41;78.97
81352;BME280;70809;52.184;13.422;2023-09-12T00:45:38;100862.28;;;15.43;79.34
81352;BME280;70809;52.184;13.422;2023-09-12T00:46:40;100860.50;;;15.42;79.16
81352;BME280;70809;52.184;13.422;2023-09-12T00:47:42;100868.50;;;15.40;79.23
81352;BME280;70809;52.184;13.422;2023-09-12T00:48:45;100870.25;;;15.45;79.38
81352;BME280;70809;52.184;13.422;2023-09-12T00:49:49;100864.94;;;15.45;79.18
81352;BME280;70809;52.184;13.422;2023-09-12T00:50:59;100858.75;;;15.43;79.94
81352;BME280;70809;52.184;13.422;2023-09-12T00:52:01;100864.03;;;15.47;79.89
81352;BME280;70809;52.184;13.422;2023-09-12T00:53:04;100862.22;;;15.52;79.16
81352;BME280;70809;52.184;13.422;2023-09-12T00:54:06;100865.78;;;15.53;79.30
81352;BME280;70809;52.184;13.422;2023-09-12T00:55:10;100864.00;;;15.56;79.60
81352;BME280;70809;52.184;13.422;2023-09-12T00:56:13;100865.75;;;15.63;78.78
81352;BME280;70809;52.184;13.422;2023-09-12T00:57:15;100861.28;;;15.59;77.51
81352;BME280;70809;52.184;13.422;2023-09-12T00:58:17;100871.13;;;15.54;77.36
81352;BME280;70809;52.184;13.422;2023-09-12T00:59:19;100866.69;;;15.47;77.34
81352;BME280;70809;52.184;13.422;2023-09-12T01:00:22;100870.22;;;15.48;77.76
81352;BME280;70809;52.184;13.422;2023-09-12T01:01:24;100864.00;;;15.55;78.26
81352;BME280;70809;52.184;13.422;2023-09-12T01:02:25;100865.75;;;15.59;78.39
81352;BME280;70809;52.184;13.422;2023-09-12T01:03:27;100871.09;;;15.63;78.42
81352;BME280;70809;52.184;13.422;2023-09-12T01:04:30;100871.09;;;15.66;78.25
81352;BME280;70809;52.184;13.422;2023-09-12T01:05:36;100869.31;;;15.65;78.07
81352;BME280;70809;52.184;13.422;2023-09-12T01:06:39;100865.75;;;15.63;77.86
81352;BME280;70809;52.184;13.422;2023-09-12T01:07:42;100865.75;;;15.66;77.34
81352;BME280;70809;52.184;13.422;2023-09-12T01:08:44;100870.19;;;15.60;77.61
81352;BME280;70809;52.184;13.422;2023-09-12T01:09:46;100864.00;;;15.56;77.66
81352;BME280;70809;52.184;13.422;2023-09-12T01:10:49;100863.13;;;15.51;77.23
81352;BME280;70809;52.184;13.422;2023-09-12T01:12:10;100870.25;;;15.49;77.54
81352;BME280;70809;52.184;13.422;2023-09-12T01:13:12;100871.09;;;15.48;77.30
81352;BME280;70809;52.184;13.422;2023-09-12T01:14:15;100860.53;;;15.39;77.59
81352;BME280;70809;52.184;13.422;2023-09-12T01:15:17;100864.06;;;15.35;77.50
81352;BME280;70809;52.184;13.422;2023-09-12T01:16:19;100860.56;;;15.31;77.43
81352;BME280;70809;52.184;13.422;2023-09-12T01:17:21;100857.88;;;15.30;77.19
81352;BME280;70809;52.184;13.422;2023-09-12T01:18:23;100866.75;;;15.29;77.14
81352;BME280;70809;52.184;13.422;2023-09-12T01:19:25;100855.25;;;15.27;77.27
81352;BME280;70809;52.184;13.422;2023-09-12T01:20:29;100851.69;;;15.23;77.24
81352;BME280;70809;52.184;13.422;2023-09-12T01:21:54;100865.03;;;15.16;77.77
81352;BME280;70809;52.184;13.422;2023-09-12T01:23:10;100862.34;;;15.19;77.72
81352;BME280;70809;52.184;13.422;2023-09-12T01:26:05;100858.84;;;15.09;76.83
81352;BME280;70809;52.184;13.422;2023-09-12T01:27:21;100852.66;;;15.04;77.01
81352;BME280;70809;52.184;13.422;2023-09-12T01:28:24;100863.28;;;15.01;77.24
81352;BME280;70809;52.184;13.422;2023-09-12T01:29:26;100863.31;;;14.93;77.63
81352;BME280;70809;52.184;13.422;2023-09-12T01:30:31;100855.34;;;14.87;77.83
81352;BME280;70809;52.184;13.422;2023-09-12T01:31:34;100864.25;;;14.86;78.24
81352;BME280;70809;52.184;13.422;2023-09-12T01:32:40;100873.06;;;14.85;78.24
81352;BME280;70809;52.184;13.422;2023-09-12T01:33:42;100861.56;;;14.78;78.40
81352;BME280;70809;52.184;13.422;2023-09-12T01:34:44;100859.81;;;14.71;79.29
81352;BME280;70809;52.184;13.422;2023-09-12T01:35:46;100869.56;;;14.66;78.77
81352;BME280;70809;52.184;13.422;2023-09-12T01:36:47;100863.38;;;14.58;79.26
81352;BME280;70809;52.184;13.422;2023-09-12T01:37:49;100859.81;;;14.54;79.65
81352;BME280;70809;52.184;13.422;2023-09-12T01:38:52;100866.03;;;14.56;79.02
81352;BME280;70809;52.184;13.422;2023-09-12T01:39:54;100858.94;;;14.58;79.12
81352;BME280;70809;52.184;13.422;2023-09-12T01:40:55;100859.81;;;14.62;79.10
81352;BME280;70809;52.184;13.422;2023-09-12T01:41:59;100864.25;;;14.71;79.07
81352;BME280;70809;52.184;13.422;2023-09-12T01:43:04;100855.38;;;14.75;79.05
81352;BME280;70809;52.184;13.422;2023-09-12T01:44:08;100860.69;;;14.76;78.98
81352;BME280;70809;52.184;13.422;2023-09-12T01:45:13;100858.00;;;14.79;78.93
81352;BME280;70809;52.184;13.422;2023-09-12T01:46:16;100866.00;;;14.84;78.73
81352;BME280;70809;52.184;13.422;2023-09-12T01:47:20;100850.94;;;14.80;78.25
81352;BME280;70809;52.184;13.422;2023-09-12T01:48:25;100850.94;;;14.75;78.24
81352;BME280;70809;52.184;13.422;2023-09-12T01:49:29;100859.81;;;14.71;79.05
81352;BME280;70809;52.184;13.422;2023-09-12T01:50:33;100857.16;;;14.45;80.60
81352;BME280;70809;52.184;13.422;2023-09-12T01:51:35;100859.81;;;14.34;80.69
81352;BME280;70809;52.184;13.422;2023-09-12T01:52:38;100850.06;;;14.40;80.64
81352;BME280;70809;52.184;13.422;2023-09-12T01:53:41;100852.69;;;14.44;79.92
81352;BME280;70809;52.184;13.422;2023-09-12T01:54:44;100854.53;;;14.51;79.29
81352;BME280;70809;52.184;13.422;2023-09-12T01:55:47;100863.38;;;14.52;79.37
81352;BME280;70809;52.184;13.422;2023-09-12T01:56:50;100855.38;;;14.50;79.62
81352;BME280;70809;52.184;13.422;2023-09-12T01:57:53;100856.28;;;14.57;79.70
81352;BME280;70809;52.184;13.422;2023-09-12T01:58:56;100857.19;;;14.57;78.83
81352;BME280;70809;52.184;13.422;2023-09-12T01:59:58;100857.16;;;14.54;79.30
81352;BME280;70809;52.184;13.422;2023-09-12T02:01:00;100866.03;;;14.53;79.89
81352;BME280;70809;52.184;13.422;2023-09-12T02:02:02;100861.56;;;14.45;80.38
81352;BME280;70809;52.184;13.422;2023-09-12T02:03:04;100853.59;;;14.45;80.81
81352;BME280;70809;52.184;13.422;2023-09-12T02:04:06;100856.28;;;14.49;81.10
81352;BME280;70809;52.184;13.422;2023-09-12T02:05:11;100857.16;;;14.54;81.08
81352;BME280;70809;52.184;13.422;2023-09-12T02:06:14;100854.50;;;14.59;80.81
81352;BME280;70809;52.184;13.422;2023-09-12T02:07:16;100857.16;;;14.60;80.40
81352;BME280;70809;52.184;13.422;2023-09-12T02:08:19;100848.31;;;14.65;79.97
81352;BME280;70809;52.184;13.422;2023-09-12T02:09:21;100856.28;;;14.66;79.57
81352;BME280;70809;52.184;13.422;2023-09-12T02:10:23;100853.63;;;14.63;79.66
81352;BME280;70809;52.184;13.422;2023-09-12T02:11:26;100846.53;;;14.64;79.68
81352;BME280;70809;52.184;13.422;2023-09-12T02:12:28;100850.09;;;14.63;79.91
81352;BME280;70809;52.184;13.422;2023-09-12T02:13:30;100853.63;;;14.58;80.12
81352;BME280;70809;52.184;13.422;2023-09-12T02:14:33;100844.75;;;14.56;80.52
81352;BME280;70809;52.184;13.422;2023-09-12T02:15:35;100850.09;;;14.58;80.36
81352;BME280;70809;52.184;13.422;2023-09-12T02:16:37;100850.97;;;14.63;80.04
81352;BME280;70809;52.184;13.422;2023-09-12T02:17:43;100851.84;;;14.65;79.59
81352;BME280;70809;52.184;13.422;2023-09-12T02:18:46;100848.28;;;14.66;79.92
81352;BME280;70809;52.184;13.422;2023-09-12T02:19:47;100842.06;;;14.72;79.63
81352;BME280;70809;52.184;13.422;2023-09-12T02:20:52;100847.38;;;14.73;79.62
81352;BME280;70809;52.184;13.422;2023-09-12T02:21:56;100844.72;;;14.78;79.24
81352;BME280;70809;52.184;13.422;2023-09-12T02:22:58;100841.16;;;14.79;78.75
81352;BME280;70809;52.184;13.422;2023-09-12T02:24:01;100840.28;;;14.83;78.63
81352;BME280;70809;52.184;13.422;2023-09-12T02:25:04;100842.94;;;14.83;78.32
81352;BME280;70809;52.184;13.422;2023-09-12T02:26:07;100838.53;;;14.77;78.94
81352;BME280;70809;52.184;13.422;2023-09-12T02:27:08;100844.75;;;14.67;79.38
81352;BME280;70809;52.184;13.422;2023-09-12T02:28:10;100841.25;;;14.51;79.99
81352;BME280;70809;52.184;13.422;2023-09-12T02:29:12;100840.31;;;14.42;80.07
81352;BME280;70809;52.184;13.422;2023-09-12T02:30:15;100846.53;;;14.41;80.18
81352;BME280;70809;52.184;13.422;2023-09-12T02:31:17;100835.00;;;14.42;80.22
81352;BME280;70809;52.184;13.422;2023-09-12T02:32:19;100848.28;;;14.43;79.69
81352;BME280;70809;52.184;13.422;2023-09-12T02:33:21;100831.47;;;14.50;79.59
81352;BME280;70809;52.184;13.422;2023-09-12T02:34:23;100836.78;;;14.59;78.97
81352;BME280;70809;52.184;13.422;2023-09-12T02:35:24;100839.44;;;14.63;79.25
81352;BME280;70809;52.184;13.422;2023-09-12T02:36:26;100839.44;;;14.66;79.50
81352;BME280;70809;52.184;13.422;2023-09-12T02:37:29;100839.41;;;14.72;79.31
81352;BME280;70809;52.184;13.422;2023-09-12T02:38:31;100831.44;;;14.67;79.19
81352;BME280;70809;52.184;13.422;2023-09-12T02:39:32;100833.25;;;14.64;78.96
81352;BME280;70809;52.184;13.422;2023-09-12T02:40:34;100839.44;;;14.59;78.83
81352;BME280;70809;52.184;13.422;2023-09-12T02:41:36;100834.13;;;14.58;79.14
81352;BME280;70809;52.184;13.422;2023-09-12T02:42:38;100837.69;;;14.58;79.05
81352;BME280;70809;52.184;13.422;2023-09-12T02:43:39;100840.34;;;14.52;79.47
81352;BME280;70809;52.184;13.422;2023-09-12T02:44:41;100841.22;;;14.54;79.24
81352;BME280;70809;52.184;13.422;2023-09-12T02:45:44;100835.03;;;14.58;79.19
81352;BME280;70809;52.184;13.422;2023-09-12T02:46:46;100834.13;;;14.59;79.48
81352;BME280;70809;52.184;13.422;2023-09-12T02:47:49;100841.22;;;14.65;79.49
81352;BME280;70809;52.184;13.422;2023-09-12T02:48:52;100834.13;;;14.66;79.23
81352;BME280;70809;52.184;13.422;2023-09-12T02:49:53;100831.47;;;14.63;79.36
81352;BME280;70809;52.184;13.422;2023-09-12T02:50:55;100838.53;;;14.67;79.42
81352;BME280;70809;52.184;13.422;2023-09-12T02:52:00;100838.56;;;14.59;79.44
81352;BME280;70809;52.184;13.422;2023-09-12T02:53:03;100846.56;;;14.47;79.42
81352;BME280;70809;52.184;13.422;2023-09-12T02:54:05;100837.66;;;14.37;78.98
81352;BME280;70809;52.184;13.422;2023-09-12T02:55:07;100841.19;;;14.25;79.68
81352;BME280;70809;52.184;13.422;2023-09-12T02:56:08;100845.63;;;14.17;80.38
81352;BME280;70809;52.184;13.422;2023-09-12T02:57:10;100846.53;;;14.22;80.95
81352;BME280;70809;52.184;13.422;2023-09-12T02:58:12;100843.00;;;14.28;80.51
81352;BME280;70809;52.184;13.422;2023-09-12T02:59:14;100837.66;;;14.34;80.33
81352;BME280;70809;52.184;13.422;2023-09-12T03:00:16;100842.09;;;14.46;79.99
81352;BME280;70809;52.184;13.422;2023-09-12T03:01:20;100835.03;;;14.51;79.21
81352;BME280;70809;52.184;13.422;2023-09-12T03:02:24;100832.38;;;14.52;79.64
81352;BME280;70809;52.184;13.422;2023-09-12T03:03:26;100845.66;;;14.54;79.43
81352;BME280;70809;52.184;13.422;2023-09-12T03:04:34;100835.91;;;14.54;79.37
81352;BME280;70809;52.184;13.422;2023-09-12T03:05:37;100838.56;;;14.59;78.91
81352;BME280;70809;52.184;13.422;2023-09-12T03:06:40;100835.03;;;14.58;78.88
81352;BME280;70809;52.184;13.422;2023-09-12T03:07:42;100832.34;;;14.60;79.15
81352;BME280;70809;52.184;13.422;2023-09-12T03:08:44;100832.34;;;14.60;78.48
81352;BME280;70809;52.184;13.422;2023-09-12T03:09:47;100829.69;;;14.60;78.65
81352;BME280;70809;52.184;13.422;2023-09-12T03:10:54;100832.38;;;14.57;78.62
81352;BME280;70809;52.184;13.422;2023-09-12T03:11:55;100829.69;;;14.55;78.76
81352;BME280;70809;52.184;13.422;2023-09-12T03:12:57;100824.41;;;14.51;78.97
81352;BME280;70809;52.184;13.422;2023-09-12T03:13:59;100830.56;;;14.36;79.09
81352;BME280;70809;52.184;13.422;2023-09-12T03:15:01;100834.13;;;14.23;80.12
81352;BME280;70809;52.184;13.422;2023-09-12T03:16:04;100828.81;;;14.17;80.37
81352;BME280;70809;52.184;13.422;2023-09-12T03:17:07;100827.91;;;14.19;80.80
81352;BME280;70809;52.184;13.422;2023-09-12T03:18:09;100832.34;;;14.31;81.07
81352;BME280;70809;52.184;13.422;2023-09-12T03:19:11;100831.44;;;14.27;80.54
81352;BME280;70809;52.184;13.422;2023-09-12T03:20:13;100828.81;;;14.29;80.27
81352;BME280;70809;52.184;13.422;2023-09-12T03:21:15;100828.78;;;14.32;79.76
81352;BME280;70809;52.184;13.422;2023-09-12T03:22:17;100830.56;;;14.36;79.40
81352;BME280;70809;52.184;13.422;2023-09-12T03:23:19;100827.91;;;14.30;80.34
81352;BME280;70809;52.184;13.422;2023-09-12T03:24:21;100828.78;;;14.26;80.11
81352;BME280;70809;52.184;13.422;2023-09-12T03:25:23;100829.69;;;14.23;79.60
81352;BME280;70809;52.184;13.422;2023-09-12T03:26:28;100824.38;;;14.17;80.37
81352;BME280;70809;52.184;13.422;2023-09-12T03:27:29;100827.03;;;14.23;80.24
81352;BME280;70809;52.184;13.422;2023-09-12T03:28:32;100830.56;;;14.31;80.03
81352;BME280;70809;52.184;13.422;2023-09-12T03:29:34;100828.81;;;14.40;79.73
81352;BME280;70809;52.184;13.422;2023-09-12T03:30:37;100822.59;;;14.42;79.72
81352;BME280;70809;52.184;13.422;2023-09-12T03:31:39;100826.13;;;14.44;79.36
81352;BME280;70809;52.184;13.422;2023-09-12T03:32:43;100823.47;;;14.44;78.95
81352;BME280;70809;52.184;13.422;2023-09-12T03:33:45;100826.16;;;14.40;79.35
81352;BME280;70809;52.184;13.422;2023-09-12T03:34:47;100831.44;;;14.33;79.92
81352;BME280;70809;52.184;13.422;2023-09-12T03:35:49;100836.75;;;14.26;79.50
81352;BME280;70809;52.184;13.422;2023-09-12T03:36:51;100833.22;;;14.24;79.54
81352;BME280;70809;52.184;13.422;2023-09-12T03:37:53;100829.69;;;14.26;79.37
81352;BME280;70809;52.184;13.422;2023-09-12T03:38:55;100832.34;;;14.28;79.12
81352;BME280;70809;52.184;13.422;2023-09-12T03:39:56;100831.44;;;14.26;79.36
81352;BME280;70809;52.184;13.422;2023-09-12T03:40:58;100824.34;;;14.32;79.32
81352;BME280;70809;52.184;13.422;2023-09-12T03:42:00;100825.22;;;14.39;79.42
81352;BME280;70809;52.184;13.422;2023-09-12T03:43:03;100825.28;;;14.47;79.13
81352;BME280;70809;52.184;13.422;2023-09-12T03:44:06;100823.47;;;14.50;78.54
81352;BME280;70809;52.184;13.422;2023-09-12T03:45:10;100827.03;;;14.49;79.08
81352;BME280;70809;52.184;13.422;2023-09-12T03:46:12;100827.91;;;14.45;79.27
81352;BME280;70809;52.184;13.422;2023-09-12T03:47:13;100823.47;;;14.41;79.15
81352;BME280;70809;52.184;13.422;2023-09-12T03:48:17;100818.16;;;14.41;79.01
81352;BME280;70809;52.184;13.422;2023-09-12T03:49:20;100819.91;;;14.39;78.64
81352;BME280;70809;52.184;13.422;2023-09-12T03:50:22;100827.00;;;14.43;78.78
81352;BME280;70809;52.184;13.422;2023-09-12T03:51:23;100824.38;;;14.46;78.42
81352;BME280;70809;52.184;13.422;2023-09-12T03:52:25;100828.78;;;14.44;78.74
81352;BME280;70809;52.184;13.422;2023-09-12T03:53:27;100823.47;;;14.41;78.15
81352;BME280;70809;52.184;13.422;2023-09-12T03:54:29;100828.78;;;14.41;77.94
81352;BME280;70809;52.184;13.422;2023-09-12T03:55:31;100825.25;;;14.41;78.33
81352;BME280;70809;52.184;13.422;2023-09-12T03:56:34;100826.13;;;14.41;78.33
81352;BME280;70809;52.184;13.422;2023-09-12T03:57:36;100827.91;;;14.38;78.38
81352;BME280;70809;52.184;13.422;2023-09-12T03:58:37;100837.66;;;14.28;78.51
81352;BME280;70809;52.184;13.422;2023-09-12T03:59:39;100836.75;;;14.04;79.40
81352;BME280;70809;52.184;13.422;2023-09-12T04:00:41;100834.91;;;13.68;81.33
81352;BME280;70809;52.184;13.422;2023-09-12T04:01:43;100841.94;;;13.43;82.30
81352;BME280;70809;52.184;13.422;2023-09-12T04:02:45;100841.88;;;13.33;82.72
81352;BME280;70809;52.184;13.422;2023-09-12T04:03:50;100842.81;;;13.44;82.55
81352;BME280;70809;52.184;13.422;2023-09-12T04:04:51;100841.06;;;13.58;81.93
81352;BME280;70809;52.184;13.422;2023-09-12T04:05:54;100839.31;;;13.65;81.62
81352;BME280;70809;52.184;13.422;2023-09-12T04:06:55;100841.13;;;13.72;81.20
81352;BME280;70809;52.184;13.422;2023-09-12T04:07:58;100841.13;;;13.75;80.47
81352;BME280;70809;52.184;13.422;2023-09-12T04:09:00;100843.78;;;13.79;80.29
81352;BME280;70809;52.184;13.422;2023-09-12T04:10:02;100850.00;;;13.77;80.01
81352;BME280;70809;52.184;13.422;2023-09-12T04:11:04;100847.31;;;13.75;80.29
81352;BME280;70809;52.184;13.422;2023-09-12T04:12:06;100845.53;;;13.76;80.40
81352;BME280;70809;52.184;13.422;2023-09-12T04:13:08;100848.22;;;13.85;79.77
81352;BME280;70809;52.184;13.422;2023-09-12T04:14:10;100849.13;;;13.92;79.58
81352;BME280;70809;52.184;13.422;2023-09-12T04:15:12;100846.47;;;13.96;79.62
81352;BME280;70809;52.184;13.422;2023-09-12T04:16:17;100849.16;;;14.02;79.36
81352;BME280;70809;52.184;13.422;2023-09-12T04:17:20;100850.94;;;14.06;79.49
81352;BME280;70809;52.184;13.422;2023-09-12T04:18:21;100845.63;;;14.08;79.30
81352;BME280;70809;52.184;13.422;2023-09-12T04:19:25;100851.81;;;14.12;79.00
81352;BME280;70809;52.184;13.422;2023-09-12T04:20:27;100845.63;;;14.13;78.99
81352;BME280;70809;52.184;13.422;2023-09-12T04:21:29;100843.84;;;14.12;78.92
81352;BME280;70809;52.184;13.422;2023-09-12T04:22:30;100850.03;;;14.14;79.17
81352;BME280;70809;52.184;13.422;2023-09-12T04:23:32;100848.28;;;14.13;79.24
81352;BME280;70809;52.184;13.422;2023-09-12T04:24:34;100848.28;;;14.13;79.26
81352;BME280;70809;52.184;13.422;2023-09-12T04:25:35;100848.28;;;14.11;79.00
81352;BME280;70809;52.184;13.422;2023-09-12T04:26:37;100846.50;;;14.08;78.45
81352;BME280;70809;52.184;13.422;2023-09-12T04:27:40;100846.50;;;14.02;78.25
81352;BME280;70809;52.184;13.422;2023-09-12T04:28:42;100841.16;;;13.87;79.33
81352;BME280;70809;52.184;13.422;2023-09-12T04:29:44;100850.00;;;13.80;79.85
81352;BME280;70809;52.184;13.422;2023-09-12T04:30:46;100847.31;;;13.75;80.79
81352;BME280;70809;52.184;13.422;2023-09-12T04:31:48;100854.41;;;13.79;80.76
81352;BME280;70809;52.184;13.422;2023-09-12T04:32:50;100854.44;;;13.90;80.47
81352;BME280;70809;52.184;13.422;2023-09-12T04:33:53;100855.34;;;14.01;80.60
81352;BME280;70809;52.184;13.422;2023-09-12T04:34:56;100850.03;;;14.09;80.27
81352;BME280;70809;52.184;13.422;2023-09-12T04:35:58;100843.84;;;14.15;80.39
81352;BME280;70809;52.184;13.422;2023-09-12T04:37:00;100851.84;;;14.18;80.05
81352;BME280;70809;52.184;13.422;2023-09-12T04:38:01;100849.16;;;14.19;79.84
81352;BME280;70809;52.184;13.422;2023-09-12T04:39:04;100850.03;;;14.21;79.41
81352;BME280;70809;52.184;13.422;2023-09-12T04:40:07;100843.00;;;14.28;78.66
81352;BME280;70809;52.184;13.422;2023-09-12T04:41:12;100859.78;;;14.31;78.08
81352;BME280;70809;52.184;13.422;2023-09-12T04:42:14;100857.13;;;14.33;78.24
81352;BME280;70809;52.184;13.422;2023-09-12T04:43:15;100858.94;;;14.28;78.66
81352;BME280;70809;52.184;13.422;2023-09-12T04:44:17;100857.16;;;14.28;78.23
81352;BME280;70809;52.184;13.422;2023-09-12T04:45:19;100848.28;;;14.25;78.39
81352;BME280;70809;52.184;13.422;2023-09-12T04:46:20;100851.81;;;14.19;78.42
81352;BME280;70809;52.184;13.422;2023-09-12T04:47:22;100851.84;;;14.18;78.35
81352;BME280;70809;52.184;13.422;2023-09-12T04:48:25;100851.84;;;14.24;78.40
81352;BME280;70809;52.184;13.422;2023-09-12T04:49:27;100844.75;;;14.29;77.91
81352;BME280;70809;52.184;13.422;2023-09-12T04:50:30;100846.50;;;14.33;78.40
81352;BME280;70809;52.184;13.422;2023-09-12T04:51:32;100844.75;;;14.37;78.48
81352;BME280;70809;52.184;13.422;2023-09-12T04:52:34;100845.63;;;14.37;78.99
81352;BME280;70809;52.184;13.422;2023-09-12T04:53:35;100846.50;;;14.39;78.97
81352;BME280;70809;52.184;13.422;2023-09-12T04:54:38;100835.00;;;14.43;78.56
81352;BME280;70809;52.184;13.422;2023-09-12T04:55:41;100850.06;;;14.43;78.80
81352;BME280;70809;52.184;13.422;2023-09-12T04:56:42;100839.44;;;14.41;78.80
81352;BME280;70809;52.184;13.422;2023-09-12T04:57:44;100838.53;;;14.42;78.64
81352;BME280;70809;52.184;13.422;2023-09-12T04:58:46;100838.53;;;14.41;78.94
81352;BME280;70809;52.184;13.422;2023-09-12T04:59:48;100843.84;;;14.39;78.68
81352;BME280;70809;52.184;13.422;2023-09-12T05:00:49;100844.72;;;14.32;78.84
81352;BME280;70809;52.184;13.422;2023-09-12T05:01:51;100835.00;;;14.28;78.64
81352;BME280;70809;52.184;13.422;2023-09-12T05:02:55;100842.97;;;14.25;78.61
81352;BME280;70809;52.184;13.422;2023-09-12T05:03:57;100842.06;;;14.20;79.04
81352;BME280;70809;52.184;13.422;2023-09-12T05:04:59;100835.00;;;14.11;79.40
81352;BME280;70809;52.184;13.422;2023-09-12T05:06:03;100838.53;;;13.95;79.19
81352;BME280;70809;52.184;13.422;2023-09-12T05:07:04;100834.06;;;13.83;79.67
81352;BME280;70809;52.184;13.422;2023-09-12T05:08:06;100834.97;;;13.84;79.93
81352;BME280;70809;52.184;13.422;2023-09-12T05:09:08;100847.34;;;13.88;79.05
81352;BME280;70809;52.184;13.422;2023-09-12T05:10:10;100850.88;;;13.93;79.45
81352;BME280;70809;52.184;13.422;2023-09-12T05:11:12;100835.00;;;14.00;78.71
81352;BME280;70809;52.184;13.422;2023-09-12T05:12:14;100848.28;;;14.06;78.22
81352;BME280;70809;52.184;13.422;2023-09-12T05:13:15;100846.50;;;14.05;78.20
81352;BME280;70809;52.184;13.422;2023-09-12T05:14:18;100851.81;;;14.02;78.86
81352;BME280;70809;52.184;13.422;2023-09-12T05:15:20;100850.03;;;13.95;79.68
81352;BME280;70809;52.184;13.422;2023-09-12T05:16:22;100858.88;;;13.97;80.04
81352;BME280;70809;52.184;13.422;2023-09-12T05:17:24;100860.66;;;14.03;80.15
81352;BME280;70809;52.184;13.422;2023-09-12T05:18:26;100850.94;;;14.08;79.87
81352;BME280;70809;52.184;13.422;2023-09-12T05:19:29;100860.66;;;14.04;80.25
81352;BME280;70809;52.184;13.422;2023-09-12T05:20:32;100864.22;;;14.08;80.35
81352;BME280;70809;52.184;13.422;2023-09-12T05:21:35;100866.88;;;14.08;80.92
81352;BME280;70809;52.184;13.422;2023-09-12T05:22:36;100862.44;;;14.10;81.29
81352;BME280;70809;52.184;13.422;2023-09-12T05:23:38;100864.22;;;14.17;81.15
81352;BME280;70809;52.184;13.422;2023-09-12T05:24:40;100864.22;;;14.22;81.58